KACV/ACV METAR and TAF weather

Enter ICAO airport designator
Station Type Date Time Source
KACV METAR 2018/06/25 16:53 UTC NOAA

KACV 251653Z AUTO 34008KT 10SM BKN007 BKN024 14/11 A3008 RMK AO2 CIG 004V009 SLP191 T01440111


Station Type Date Time Source
KACV Decoded METAR 2018/06/25 16:53 UTC NOAA

ARCATA/EUREKA ARCATA AIRPORT, CA, United States (KACV) 40-59N 124-06W 67M
Jun 25, 2018 - 12:53 PM EDT / 2018.06.25 1653 UTC
Wind: from the NNW (340 degrees) at 9 MPH (8 KT):0
Visibility: 10 mile(s):0
Sky conditions: mostly cloudy
Temperature: 57.9 F (14.4 C)
Dew Point: 52.0 F (11.1 C)
Relative Humidity: 80%
Pressure (altimeter): 30.08 in. Hg (1018 hPa)
ob: KACV 251653Z AUTO 34008KT 10SM BKN007 BKN024 14/11 A3008 RMK AO2 CIG 004V009 SLP191 T01440111
cycle: 17

Station Type Date Time Source
KACV TAF 2018/06/25 12:46 UTC NOAA

TAF KACV 251143Z 2512/2612 36008KT 5SM BR SCT002 OVC010
TEMPO 2512/2515 OVC007
FM251800 32010KT P6SM BKN010
FM252200 33014G24KT P6SM SCT010
FM260600 33007KT 6SM BR BKN009


Example: see airport list